Em Athens — V7US8 — position and weather

sailwx.info

Track history (hours):
 
Tides and Currents Weather Stations Pressure Air Temp Water Temp Dewpoint Dewpoint Depression Visibility Wind Speed Wind Dir Waves Ship Positions

Em Athens

Last reported at 2018-Apr-21 15:07 UTC. Time now 2018-Apr-21 15:43 UTC.
Position N 08°04' W 014°09'.

Length 207 m; draft 9.7 m.

Type: Cargo ship. MMSI: 538004019.

Date/timePositionNaut miles runAvg speedWind from/ knotsBaromVisibWave heightAir tempDewpointWater temp
2018-Apr-21 15:07N 08°04' W 014°09'211.9
2018-Apr-21 14:56N 08°06' W 014°08'511.9
2018-Apr-21 14:30N 08°10' W 014°04'712.0
2018-Apr-21 13:57N 08°14' W 013°59'511.9
2018-Apr-21 13:30N 08°18' W 013°56'811.7
2018-Apr-21 12:49N 08°24' W 013°50'1611.6
2018-Apr-21 11:27N 08°26' W 013°34'511.3
2018-Apr-21 11:00N 08°27' W 013°29'611.3
2018-Apr-21 10:27N 08°28' W 013°23'9 8.4
2018-Apr-21 09:21N 08°30' W 013°14'1 3.0
2018-Apr-21 08:59N 08°30' W 013°13'0 0.0
2018-Apr-21 08:14N 08°30' W 013°13'0 0.0
2018-Apr-21 07:47N 08°30' W 013°13'0 0.0
2018-Apr-21 07:20N 08°30' W 013°13'0 0.0
2018-Apr-21 06:59N 08°30' W 013°13'0 0.0
2018-Apr-21 06:29N 08°30' W 013°13'0 0.0
2018-Apr-21 05:59N 08°30' W 013°13'0 0.0
2018-Apr-21 05:29N 08°30' W 013°13'0 0.0
2018-Apr-21 04:59N 08°30' W 013°13'0 0.0
2018-Apr-21 04:29N 08°30' W 013°13'0 0.0
2018-Apr-21 03:59N 08°30' W 013°13'0 0.0
2018-Apr-21 02:29N 08°30' W 013°13'0 0.0
2018-Apr-21 01:59N 08°30' W 013°13'0 0.0
2018-Apr-21 01:05N 08°30' W 013°13'0 0.0
2018-Apr-21 00:59N 08°30' W 013°13'0 0.0
2018-Apr-21 00:29N 08°30' W 013°13'0 0.0
2018-Apr-20 23:53N 08°30' W 013°13'0 0.0
2018-Apr-20 23:29N 08°30' W 013°13'0 0.0
2018-Apr-20 22:50N 08°30' W 013°13'0 0.0
2018-Apr-20 22:29N 08°30' W 013°13'0 0.0
2018-Apr-20 21:59N 08°30' W 013°13'0 0.0
2018-Apr-20 21:26N 08°30' W 013°13'0 0.0
2018-Apr-20 18:56N 08°30' W 013°13'0 0.0
2018-Apr-20 18:29N 08°30' W 013°13'0 0.0
2018-Apr-20 17:59N 08°30' W 013°13'0 0.0
2018-Apr-20 17:29N 08°30' W 013°13'0 0.0
2018-Apr-20 16:56N 08°30' W 013°13'0 0.0
2018-Apr-20 16:29N 08°30' W 013°13'18 1.7
2018-Apr-20 05:56N 08°31' W 013°31'29 9.1
2018-Apr-20 02:41N 08°55' W 013°48'210.6
2018-Apr-20 02:29N 08°58' W 013°48'1610.4
2018-Apr-20 00:59N 09°13' W 013°44'510.3
2018-Apr-20 00:30N 09°18' W 013°44'510.1
2018-Apr-20 00:00N 09°23' W 013°43'5 9.9
2018-Apr-19 23:30N 09°28' W 013°43'3 5.7
2018-Apr-19 23:00N 09°31' W 013°43'0 0.2
2018-Apr-19 22:30N 09°31' W 013°43'0 0.0
2018-Apr-19 21:59N 09°31' W 013°43'0 0.0
2018-Apr-19 21:29N 09°31' W 013°43'0 0.0
2018-Apr-19 20:59N 09°31' W 013°43'0 0.0
2018-Apr-19 20:29N 09°31' W 013°43'0 0.0
2018-Apr-19 19:59N 09°31' W 013°43'0 0.0
2018-Apr-19 19:29N 09°31' W 013°43'0 0.0
2018-Apr-19 18:59N 09°31' W 013°43'0 0.0
2018-Apr-19 18:29N 09°31' W 013°43'0 0.0
2018-Apr-19 17:59N 09°31' W 013°43'0 0.0
2018-Apr-19 17:29N 09°31' W 013°43'0 0.0
2018-Apr-19 16:59N 09°31' W 013°43'0 0.0
2018-Apr-19 16:29N 09°31' W 013°43'0 0.0
2018-Apr-19 15:56N 09°31' W 013°43'0 0.0
2018-Apr-19 15:29N 09°31' W 013°43'0 0.0
2018-Apr-19 14:59N 09°31' W 013°43'0 0.0
2018-Apr-19 14:29N 09°31' W 013°43'0 0.0
2018-Apr-19 13:59N 09°31' W 013°43'0 0.0
2018-Apr-19 13:29N 09°31' W 013°43'0 0.0
2018-Apr-19 12:59N 09°31' W 013°43'0 0.0
2018-Apr-19 12:29N 09°31' W 013°43'0 0.0
2018-Apr-19 11:59N 09°31' W 013°43'0 0.0
2018-Apr-19 11:29N 09°31' W 013°43'0 0.0
2018-Apr-19 10:59N 09°31' W 013°43'0 0.0
2018-Apr-19 10:29N 09°31' W 013°43'0 0.0
2018-Apr-19 10:00N 09°31' W 013°43'1 2.5
2018-Apr-19 09:30N 09°29' W 013°44'4 8.1
2018-Apr-19 09:00N 09°25' W 013°43'4 3.4
2018-Apr-19 07:55N 09°22' W 013°45'1 1.6
2018-Apr-19 07:08N 09°22' W 013°46'1 6.9
2018-Apr-19 07:00N 09°21' W 013°47'611.1
2018-Apr-19 06:30N 09°22' W 013°52'611.6
2018-Apr-19 05:59N 09°21' W 013°59'711.5
2018-Apr-19 05:24N 09°21' W 014°05'511.4
2018-Apr-19 05:00N 09°21' W 014°10'3211.2
2018-Apr-19 02:11N 09°30' W 014°41'2211.3
2018-Apr-19 00:14N 09°36' W 015°02'311.5
2018-Apr-19 00:00N 09°37' W 015°05'611.5
2018-Apr-18 23:30N 09°38' W 015°10'611.6
2018-Apr-18 23:00N 09°40' W 015°16'711.6
2018-Apr-18 22:25N 09°42' W 015°22'511.5
2018-Apr-18 22:00N 09°44' W 015°27'611.5
2018-Apr-18 21:30N 09°45' W 015°33'611.8
2018-Apr-18 21:00N 09°46' W 015°39'1011.4
2018-Apr-18 20:08N 09°50' W 015°48'211.5
2018-Apr-18 20:00N 09°50' W 015°49'611.7
2018-Apr-18 19:30N 09°52' W 015°55'611.7
2018-Apr-18 18:59N 09°53' W 016°01'1011.8
2018-Apr-18 18:09N 09°57' W 016°10'211.7
2018-Apr-18 18:00N 09°57' W 016°12'911.8
2018-Apr-18 17:15N 10°03' W 016°19'2411.9
2018-Apr-18 15:14N 10°20' W 016°36'812.2
2018-Apr-18 14:36N 10°25' W 016°42'212.3
2018-Apr-18 14:28N 10°26' W 016°43'  
2018-Apr-15 07:35N 28°04' W 013°41'315.3
2018-Apr-15 07:22N 28°07' W 013°39'2815.8
2018-Apr-15 05:37N 28°29' W 013°21'615.9
2018-Apr-15 05:14N 28°34' W 013°17'416.0
2018-Apr-15 04:58N 28°38' W 013°14'58615.2
2018-Apr-13 14:16N 35°57' W 005°35'413.0
2018-Apr-13 13:58N 35°59' W 005°30'612.3
2018-Apr-13 13:30N 36°02' W 005°24'510.7
2018-Apr-13 13:01N 36°07' W 005°24'0 0.0
2018-Apr-13 05:52N 36°07' W 005°25'1 2.0
2018-Apr-13 05:30N 36°07' W 005°25'1 0.7
2018-Apr-13 04:02N 36°08' W 005°25'0 0.0
2018-Apr-13 03:38N 36°08' W 005°25'0 0.0
2018-Apr-13 03:26N 36°08' W 005°25'0 0.0
2018-Apr-13 02:59N 36°08' W 005°25'0 0.0
2018-Apr-13 02:29N 36°08' W 005°25'0 0.0
2018-Apr-13 01:59N 36°08' W 005°25'0 0.0
2018-Apr-13 01:26N 36°08' W 005°25'0 0.0
2018-Apr-13 00:59N 36°08' W 005°25'0 0.0
2018-Apr-13 00:29N 36°08' W 005°25'0 0.0
2018-Apr-12 23:44N 36°08' W 005°25'0 0.0
2018-Apr-12 22:53N 36°08' W 005°25'0 0.0
2018-Apr-12 22:26N 36°08' W 005°25'0 0.0
2018-Apr-12 19:11N 36°08' W 005°25'0 0.0
2018-Apr-12 18:47N 36°08' W 005°25'0 0.0
2018-Apr-12 18:29N 36°08' W 005°25'0 0.0
2018-Apr-12 17:56N 36°08' W 005°25'0 0.0
2018-Apr-12 17:29N 36°08' W 005°25'0 0.0
2018-Apr-12 15:20N 36°08' W 005°25'0 0.1
2018-Apr-12 14:59N 36°08' W 005°25'0 0.0
2018-Apr-12 14:29N 36°08' W 005°25'0 0.0
2018-Apr-12 13:56N 36°08' W 005°25'0 0.0
2018-Apr-12 13:29N 36°08' W 005°25'0 0.0
2018-Apr-12 12:44N 36°08' W 005°25'0 0.0
2018-Apr-12 09:47N 36°08' W 005°25'0 0.1
2018-Apr-12 09:29N 36°08' W 005°25'0 0.0
2018-Apr-12 08:47N 36°08' W 005°25'0 0.0
2018-Apr-12 08:20N 36°08' W 005°25'0 0.0
2018-Apr-12 07:41N 36°08' W 005°25'0 0.0
2018-Apr-12 07:29N 36°08' W 005°25'0 0.0
2018-Apr-12 06:56N 36°08' W 005°25'0 0.0
2018-Apr-12 05:50N 36°08' W 005°25'0 0.0
2018-Apr-12 05:29N 36°08' W 005°25'1 2.6
2018-Apr-12 05:00N 36°08' W 005°24'3 5.7
2018-Apr-12 04:30N 36°05' W 005°22'5 8.7
2018-Apr-12 03:56N 36°03' W 005°17'8 1.7
2018-Apr-11 23:26N 36°02' W 005°07'512.2
2018-Apr-11 23:00N 36°01' W 005°14'713.5
2018-Apr-11 22:30N 35°59' W 005°22'  
Track history (hours):
 
Tides and Currents Weather Stations Pressure Air Temp Water Temp Dewpoint Dewpoint Depression Visibility Wind Speed Wind Dir Waves Ship Positions

Em Athens

Last reported at 2018-Apr-21 15:07 UTC. Time now 2018-Apr-21 15:43 UTC.
Position N 08°04' W 014°09'.

Length 207 m; draft 9.7 m.

Type: Cargo ship. MMSI: 538004019.

Date/timePositionNaut miles runAvg speedWind from/ knotsBaromVisibWave heightAir tempDewpointWater temp
2018-Apr-21 15:07N 08°04' W 014°09'211.9
2018-Apr-21 14:56N 08°06' W 014°08'511.9
2018-Apr-21 14:30N 08°10' W 014°04'712.0
2018-Apr-21 13:57N 08°14' W 013°59'511.9
2018-Apr-21 13:30N 08°18' W 013°56'811.7
2018-Apr-21 12:49N 08°24' W 013°50'1611.6
2018-Apr-21 11:27N 08°26' W 013°34'511.3
2018-Apr-21 11:00N 08°27' W 013°29'611.3
2018-Apr-21 10:27N 08°28' W 013°23'9 8.4
2018-Apr-21 09:21N 08°30' W 013°14'1 3.0
2018-Apr-21 08:59N 08°30' W 013°13'0 0.0
2018-Apr-21 08:14N 08°30' W 013°13'0 0.0
2018-Apr-21 07:47N 08°30' W 013°13'0 0.0
2018-Apr-21 07:20N 08°30' W 013°13'0 0.0
2018-Apr-21 06:59N 08°30' W 013°13'0 0.0
2018-Apr-21 06:29N 08°30' W 013°13'0 0.0
2018-Apr-21 05:59N 08°30' W 013°13'0 0.0
2018-Apr-21 05:29N 08°30' W 013°13'0 0.0
2018-Apr-21 04:59N 08°30' W 013°13'0 0.0
2018-Apr-21 04:29N 08°30' W 013°13'0 0.0
2018-Apr-21 03:59N 08°30' W 013°13'0 0.0
2018-Apr-21 02:29N 08°30' W 013°13'0 0.0
2018-Apr-21 01:59N 08°30' W 013°13'0 0.0
2018-Apr-21 01:05N 08°30' W 013°13'0 0.0
2018-Apr-21 00:59N 08°30' W 013°13'0 0.0
2018-Apr-21 00:29N 08°30' W 013°13'0 0.0
2018-Apr-20 23:53N 08°30' W 013°13'0 0.0
2018-Apr-20 23:29N 08°30' W 013°13'0 0.0
2018-Apr-20 22:50N 08°30' W 013°13'0 0.0
2018-Apr-20 22:29N 08°30' W 013°13'0 0.0
2018-Apr-20 21:59N 08°30' W 013°13'0 0.0
2018-Apr-20 21:26N 08°30' W 013°13'0 0.0
2018-Apr-20 18:56N 08°30' W 013°13'0 0.0
2018-Apr-20 18:29N 08°30' W 013°13'0 0.0
2018-Apr-20 17:59N 08°30' W 013°13'0 0.0
2018-Apr-20 17:29N 08°30' W 013°13'0 0.0
2018-Apr-20 16:56N 08°30' W 013°13'0 0.0
2018-Apr-20 16:29N 08°30' W 013°13'18 1.7
2018-Apr-20 05:56N 08°31' W 013°31'29 9.1
2018-Apr-20 02:41N 08°55' W 013°48'210.6
2018-Apr-20 02:29N 08°58' W 013°48'1610.4
2018-Apr-20 00:59N 09°13' W 013°44'510.3
2018-Apr-20 00:30N 09°18' W 013°44'510.1
2018-Apr-20 00:00N 09°23' W 013°43'5 9.9
2018-Apr-19 23:30N 09°28' W 013°43'3 5.7
2018-Apr-19 23:00N 09°31' W 013°43'0 0.2
2018-Apr-19 22:30N 09°31' W 013°43'0 0.0
2018-Apr-19 21:59N 09°31' W 013°43'0 0.0
2018-Apr-19 21:29N 09°31' W 013°43'0 0.0
2018-Apr-19 20:59N 09°31' W 013°43'0 0.0
2018-Apr-19 20:29N 09°31' W 013°43'0 0.0
2018-Apr-19 19:59N 09°31' W 013°43'0 0.0
2018-Apr-19 19:29N 09°31' W 013°43'0 0.0
2018-Apr-19 18:59N 09°31' W 013°43'0 0.0
2018-Apr-19 18:29N 09°31' W 013°43'0 0.0
2018-Apr-19 17:59N 09°31' W 013°43'0 0.0
2018-Apr-19 17:29N 09°31' W 013°43'0 0.0
2018-Apr-19 16:59N 09°31' W 013°43'0 0.0
2018-Apr-19 16:29N 09°31' W 013°43'0 0.0
2018-Apr-19 15:56N 09°31' W 013°43'0 0.0
2018-Apr-19 15:29N 09°31' W 013°43'0 0.0
2018-Apr-19 14:59N 09°31' W 013°43'0 0.0
2018-Apr-19 14:29N 09°31' W 013°43'0 0.0
2018-Apr-19 13:59N 09°31' W 013°43'0 0.0
2018-Apr-19 13:29N 09°31' W 013°43'0 0.0
2018-Apr-19 12:59N 09°31' W 013°43'0 0.0
2018-Apr-19 12:29N 09°31' W 013°43'0 0.0
2018-Apr-19 11:59N 09°31' W 013°43'0 0.0
2018-Apr-19 11:29N 09°31' W 013°43'0 0.0
2018-Apr-19 10:59N 09°31' W 013°43'0 0.0
2018-Apr-19 10:29N 09°31' W 013°43'0 0.0
2018-Apr-19 10:00N 09°31' W 013°43'1 2.5
2018-Apr-19 09:30N 09°29' W 013°44'4 8.1
2018-Apr-19 09:00N 09°25' W 013°43'4 3.4
2018-Apr-19 07:55N 09°22' W 013°45'1 1.6
2018-Apr-19 07:08N 09°22' W 013°46'1 6.9
2018-Apr-19 07:00N 09°21' W 013°47'611.1
2018-Apr-19 06:30N 09°22' W 013°52'611.6
2018-Apr-19 05:59N 09°21' W 013°59'711.5
2018-Apr-19 05:24N 09°21' W 014°05'511.4
2018-Apr-19 05:00N 09°21' W 014°10'3211.2
2018-Apr-19 02:11N 09°30' W 014°41'2211.3
2018-Apr-19 00:14N 09°36' W 015°02'311.5
2018-Apr-19 00:00N 09°37' W 015°05'611.5
2018-Apr-18 23:30N 09°38' W 015°10'611.6
2018-Apr-18 23:00N 09°40' W 015°16'711.6
2018-Apr-18 22:25N 09°42' W 015°22'511.5
2018-Apr-18 22:00N 09°44' W 015°27'611.5
2018-Apr-18 21:30N 09°45' W 015°33'611.8
2018-Apr-18 21:00N 09°46' W 015°39'1011.4
2018-Apr-18 20:08N 09°50' W 015°48'211.5
2018-Apr-18 20:00N 09°50' W 015°49'611.7
2018-Apr-18 19:30N 09°52' W 015°55'611.7
2018-Apr-18 18:59N 09°53' W 016°01'1011.8
2018-Apr-18 18:09N 09°57' W 016°10'211.7
2018-Apr-18 18:00N 09°57' W 016°12'911.8
2018-Apr-18 17:15N 10°03' W 016°19'2411.9
2018-Apr-18 15:14N 10°20' W 016°36'812.2
2018-Apr-18 14:36N 10°25' W 016°42'212.3
2018-Apr-18 14:28N 10°26' W 016°43'  
2018-Apr-15 07:35N 28°04' W 013°41'315.3
2018-Apr-15 07:22N 28°07' W 013°39'2815.8
2018-Apr-15 05:37N 28°29' W 013°21'615.9
2018-Apr-15 05:14N 28°34' W 013°17'416.0
2018-Apr-15 04:58N 28°38' W 013°14'58615.2
2018-Apr-13 14:16N 35°57' W 005°35'413.0
2018-Apr-13 13:58N 35°59' W 005°30'612.3
2018-Apr-13 13:30N 36°02' W 005°24'510.7
2018-Apr-13 13:01N 36°07' W 005°24'0 0.0
2018-Apr-13 05:52N 36°07' W 005°25'1 2.0
2018-Apr-13 05:30N 36°07' W 005°25'1 0.7
2018-Apr-13 04:02N 36°08' W 005°25'0 0.0
2018-Apr-13 03:38N 36°08' W 005°25'0 0.0
2018-Apr-13 03:26N 36°08' W 005°25'0 0.0
2018-Apr-13 02:59N 36°08' W 005°25'0 0.0
2018-Apr-13 02:29N 36°08' W 005°25'0 0.0
2018-Apr-13 01:59N 36°08' W 005°25'0 0.0
2018-Apr-13 01:26N 36°08' W 005°25'0 0.0
2018-Apr-13 00:59N 36°08' W 005°25'0 0.0
2018-Apr-13 00:29N 36°08' W 005°25'0 0.0
2018-Apr-12 23:44N 36°08' W 005°25'0 0.0
2018-Apr-12 22:53N 36°08' W 005°25'0 0.0
2018-Apr-12 22:26N 36°08' W 005°25'0 0.0
2018-Apr-12 19:11N 36°08' W 005°25'0 0.0
2018-Apr-12 18:47N 36°08' W 005°25'0 0.0
2018-Apr-12 18:29N 36°08' W 005°25'0 0.0
2018-Apr-12 17:56N 36°08' W 005°25'0 0.0
2018-Apr-12 17:29N 36°08' W 005°25'0 0.0
2018-Apr-12 15:20N 36°08' W 005°25'0 0.1
2018-Apr-12 14:59N 36°08' W 005°25'0 0.0
2018-Apr-12 14:29N 36°08' W 005°25'0 0.0
2018-Apr-12 13:56N 36°08' W 005°25'0 0.0
2018-Apr-12 13:29N 36°08' W 005°25'0 0.0
2018-Apr-12 12:44N 36°08' W 005°25'0 0.0
2018-Apr-12 09:47N 36°08' W 005°25'0 0.1
2018-Apr-12 09:29N 36°08' W 005°25'0 0.0
2018-Apr-12 08:47N 36°08' W 005°25'0 0.0
2018-Apr-12 08:20N 36°08' W 005°25'0 0.0
2018-Apr-12 07:41N 36°08' W 005°25'0 0.0
2018-Apr-12 07:29N 36°08' W 005°25'0 0.0
2018-Apr-12 06:56N 36°08' W 005°25'0 0.0
2018-Apr-12 05:50N 36°08' W 005°25'0 0.0
2018-Apr-12 05:29N 36°08' W 005°25'1 2.6
2018-Apr-12 05:00N 36°08' W 005°24'3 5.7
2018-Apr-12 04:30N 36°05' W 005°22'5 8.7
2018-Apr-12 03:56N 36°03' W 005°17'8 1.7
2018-Apr-11 23:26N 36°02' W 005°07'512.2
2018-Apr-11 23:00N 36°01' W 005°14'713.5
2018-Apr-11 22:30N 35°59' W 005°22'  

Dump ship's entire track history